Time,TemperatureF,DewpointF,PressureIn,WindDirection,WindDirectionDegrees,WindSpeedMPH,WindSpeedGustMPH,Humidity,HourlyPrecipIn,Conditions,Clouds,dailyrainin,SolarRadiationWatts/m^2,SoftwareType,DateUTC
2013-08-09 00:53:00,53.0,50.0,-100.00,East,97,4.0,6.0,88,-99.99,,,0.00,0.000000,,2013-08-09 08:53:00,
2013-08-09 01:02:00,53.0,50.0,-100.00,East,97,4.0,6.0,88,-99.99,,,0.00,0.000000,,2013-08-09 09:02:00,
2013-08-09 01:12:00,53.0,50.0,-100.00,East,97,4.0,6.0,88,-99.99,,,0.00,0.000000,,2013-08-09 09:12:00,
2013-08-09 01:22:00,53.0,50.0,-100.00,East,97,4.0,6.0,88,-99.99,,,0.00,0.000000,,2013-08-09 09:22:00,
2013-08-09 02:53:00,50.0,48.0,-100.00,NNE,31,3.0,6.0,94,-99.99,,,0.00,0.000000,,2013-08-09 10:53:00,
2013-08-09 03:01:00,50.0,48.0,-100.00,NNE,31,3.0,6.0,94,-99.99,,,0.00,0.000000,,2013-08-09 11:01:00,
2013-08-09 03:11:00,50.0,48.0,-100.00,NNE,31,3.0,6.0,94,-99.99,,,0.00,0.000000,,2013-08-09 11:11:00,
2013-08-09 03:22:00,50.0,48.0,-100.00,NNE,31,3.0,6.0,94,-99.99,,,0.00,0.000000,,2013-08-09 11:22:00,
2013-08-09 03:53:00,47.0,45.0,-100.00,ESE,107,2.0,5.0,92,0.00,,,0.00,0.000000,,2013-08-09 11:53:00,
2013-08-09 04:02:00,47.0,45.0,-100.00,ESE,107,2.0,5.0,92,0.00,,,0.00,0.000000,,2013-08-09 12:02:00,
2013-08-09 04:12:00,47.0,45.0,-100.00,ESE,107,2.0,5.0,92,0.00,,,0.00,0.000000,,2013-08-09 12:12:00,
2013-08-09 04:22:00,47.0,45.0,-100.00,ESE,107,2.0,5.0,92,0.00,,,0.00,0.000000,,2013-08-09 12:22:00,
2013-08-09 04:52:00,46.0,46.0,-100.00,East,96,3.0,5.0,100,-99.99,,,-99.99,0.000000,,2013-08-09 12:52:00,
2013-08-09 05:12:00,46.0,46.0,-100.00,East,96,3.0,5.0,100,-99.99,,,-99.99,0.000000,,2013-08-09 13:12:00,
2013-08-09 05:23:00,46.0,46.0,-100.00,East,96,3.0,5.0,100,-99.99,,,-99.99,0.000000,,2013-08-09 13:23:00,
2013-08-09 05:52:00,51.0,46.0,-100.00,NE,42,3.0,9.0,83,-99.99,,,0.00,3.000000,,2013-08-09 13:52:00,
2013-08-09 06:02:00,51.0,46.0,-100.00,NE,42,3.0,9.0,83,-99.99,,,0.00,3.000000,,2013-08-09 14:02:00,
2013-08-09 06:11:00,51.0,46.0,-100.00,NE,42,3.0,9.0,83,-99.99,,,0.00,3.000000,,2013-08-09 14:11:00,
2013-08-09 06:22:00,51.0,46.0,-100.00,NE,42,3.0,9.0,83,-99.99,,,0.00,3.000000,,2013-08-09 14:22:00,
2013-08-09 06:53:00,55.0,47.0,-100.00,East,81,3.0,7.0,74,0.00,,,0.00,21.000000,,2013-08-09 14:53:00,
2013-08-09 07:01:00,55.0,47.0,-100.00,East,81,3.0,7.0,74,0.00,,,0.00,21.000000,,2013-08-09 15:01:00,
2013-08-09 07:11:00,55.0,47.0,-100.00,East,81,3.0,7.0,74,0.00,,,0.00,21.000000,,2013-08-09 15:11:00,
2013-08-09 07:22:00,55.0,47.0,-100.00,East,81,3.0,7.0,74,0.00,,,0.00,21.000000,,2013-08-09 15:22:00,
2013-08-09 07:53:00,55.0,51.0,-100.00,ENE,63,3.0,6.0,87,0.00,,,0.00,45.000000,,2013-08-09 15:53:00,
2013-08-09 08:01:00,55.0,51.0,-100.00,ENE,63,3.0,6.0,87,0.00,,,0.00,45.000000,,2013-08-09 16:01:00,
2013-08-09 08:11:00,55.0,51.0,-100.00,ENE,63,3.0,6.0,87,0.00,,,0.00,45.000000,,2013-08-09 16:11:00,
2013-08-09 08:22:00,55.0,51.0,-100.00,ENE,63,3.0,6.0,87,0.00,,,0.00,45.000000,,2013-08-09 16:22:00,
2013-08-09 08:53:00,59.0,48.0,-100.00,West,264,2.0,6.0,66,0.00,,,0.00,110.000000,,2013-08-09 16:53:00,
2013-08-09 09:02:00,59.0,48.0,-100.00,West,264,2.0,6.0,66,0.00,,,0.00,110.000000,,2013-08-09 17:02:00,
2013-08-09 09:11:00,59.0,48.0,-100.00,West,264,2.0,6.0,66,0.00,,,0.00,110.000000,,2013-08-09 17:11:00,
2013-08-09 09:22:00,59.0,48.0,-100.00,West,264,2.0,6.0,66,0.00,,,0.00,110.000000,,2013-08-09 17:22:00,
2013-08-09 09:52:00,63.0,48.0,-100.00,ENE,71,5.0,8.0,57,0.00,,,0.00,133.000000,,2013-08-09 17:52:00,
2013-08-09 10:01:00,63.0,48.0,-100.00,ENE,71,5.0,8.0,57,0.00,,,0.00,133.000000,,2013-08-09 18:01:00,
2013-08-09 10:11:00,63.0,48.0,-100.00,ENE,71,5.0,8.0,57,0.00,,,0.00,133.000000,,2013-08-09 18:11:00,
2013-08-09 10:22:00,63.0,48.0,-100.00,ENE,71,5.0,8.0,57,0.00,,,0.00,133.000000,,2013-08-09 18:22:00,
2013-08-09 10:53:00,63.0,46.0,-100.00,SSE,154,3.0,7.0,53,0.00,,,0.00,145.000000,,2013-08-09 18:53:00,
2013-08-09 11:02:00,63.0,46.0,-100.00,SSE,154,3.0,7.0,53,0.00,,,0.00,145.000000,,2013-08-09 19:02:00,
2013-08-09 11:11:00,63.0,46.0,-100.00,SSE,154,3.0,7.0,53,0.00,,,0.00,145.000000,,2013-08-09 19:11:00,
2013-08-09 11:22:00,63.0,46.0,-100.00,SSE,154,3.0,7.0,53,0.00,,,0.00,145.000000,,2013-08-09 19:22:00,
2013-08-09 11:52:00,60.0,54.0,-100.00,SSE,166,3.0,6.0,81,0.00,,,0.00,95.000000,,2013-08-09 19:52:00,
2013-08-09 12:02:00,60.0,54.0,-100.00,SSE,166,3.0,6.0,81,0.00,,,0.00,95.000000,,2013-08-09 20:02:00,
2013-08-09 12:52:00,63.0,50.0,-100.00,South,188,5.0,8.0,62,0.00,,,0.00,263.000000,,2013-08-09 20:52:00,
2013-08-09 13:01:00,63.0,50.0,-100.00,South,188,5.0,8.0,62,0.00,,,0.00,263.000000,,2013-08-09 21:01:00,
2013-08-09 13:12:00,63.0,50.0,-100.00,South,188,5.0,8.0,62,0.00,,,0.00,263.000000,,2013-08-09 21:12:00,
2013-08-09 13:22:00,63.0,50.0,-100.00,South,188,5.0,8.0,62,0.00,,,0.00,263.000000,,2013-08-09 21:22:00,
2013-08-09 13:52:00,63.0,51.0,-100.00,SSW,195,4.0,9.0,64,0.00,,,0.00,254.000000,,2013-08-09 21:52:00,
2013-08-09 14:01:00,63.0,51.0,-100.00,SSW,195,4.0,9.0,64,0.00,,,0.00,254.000000,,2013-08-09 22:01:00,
2013-08-09 14:11:00,63.0,51.0,-100.00,SSW,195,4.0,9.0,64,0.00,,,0.00,254.000000,,2013-08-09 22:11:00,
2013-08-09 14:22:00,63.0,51.0,-100.00,SSW,195,4.0,9.0,64,0.00,,,0.00,254.000000,,2013-08-09 22:22:00,
2013-08-09 15:52:00,68.0,52.0,-100.00,SW,226,3.0,6.0,56,0.00,,,0.00,306.000000,,2013-08-09 23:52:00,
2013-08-09 16:01:00,68.0,52.0,-100.00,SW,226,3.0,6.0,56,0.00,,,0.00,306.000000,,2013-08-10 00:01:00,
2013-08-09 16:11:00,68.0,52.0,-100.00,SW,226,3.0,6.0,56,0.00,,,0.00,306.000000,,2013-08-10 00:11:00,
2013-08-09 16:21:00,68.0,52.0,-100.00,SW,226,3.0,6.0,56,0.00,,,0.00,306.000000,,2013-08-10 00:21:00,
2013-08-09 16:52:00,70.0,49.0,-100.00,SW,221,2.0,4.0,47,0.00,,,0.00,290.000000,,2013-08-10 00:52:00,
2013-08-09 17:01:00,70.0,49.0,-100.00,SW,221,2.0,4.0,47,0.00,,,0.00,290.000000,,2013-08-10 01:01:00,
2013-08-09 17:11:00,70.0,49.0,-100.00,SW,221,2.0,4.0,47,0.00,,,0.00,290.000000,,2013-08-10 01:11:00,
2013-08-09 17:21:00,70.0,49.0,-100.00,SW,221,2.0,4.0,47,0.00,,,0.00,290.000000,,2013-08-10 01:21:00,
2013-08-09 17:52:00,71.0,48.0,-100.00,NW,314,2.0,5.0,44,0.00,,,0.00,239.000000,,2013-08-10 01:52:00,
2013-08-09 18:03:00,71.0,48.0,-100.00,NW,314,2.0,5.0,44,0.00,,,0.00,239.000000,,2013-08-10 02:03:00,
2013-08-09 18:11:00,71.0,48.0,-100.00,NW,314,2.0,5.0,44,0.00,,,0.00,239.000000,,2013-08-10 02:11:00,
2013-08-09 18:21:00,71.0,48.0,-100.00,NW,314,2.0,5.0,44,0.00,,,0.00,239.000000,,2013-08-10 02:21:00,
2013-08-09 19:52:00,68.0,53.0,-100.00,SSE,153,3.0,4.0,59,0.00,,,0.00,118.000000,,2013-08-10 03:52:00,
2013-08-09 20:01:00,68.0,53.0,-100.00,SSE,153,3.0,4.0,59,0.00,,,0.00,118.000000,,2013-08-10 04:01:00,
2013-08-09 20:12:00,68.0,53.0,-100.00,SSE,153,3.0,4.0,59,0.00,,,0.00,118.000000,,2013-08-10 04:12:00,
2013-08-09 20:22:00,68.0,53.0,-100.00,SSE,153,3.0,4.0,59,0.00,,,0.00,118.000000,,2013-08-10 04:22:00,
2013-08-09 20:53:00,66.0,56.0,-100.00,SSW,202,2.0,4.0,69,0.00,,,0.00,79.000000,,2013-08-10 04:53:00,
2013-08-09 21:02:00,66.0,56.0,-100.00,SSW,202,2.0,4.0,69,0.00,,,0.00,79.000000,,2013-08-10 05:02:00,
2013-08-09 21:11:00,66.0,56.0,-100.00,SSW,202,2.0,4.0,69,0.00,,,0.00,79.000000,,2013-08-10 05:11:00,
2013-08-09 21:21:00,66.0,56.0,-100.00,SSW,202,2.0,4.0,69,0.00,,,0.00,79.000000,,2013-08-10 05:21:00,
2013-08-09 22:53:00,58.0,57.0,-100.00,SSE,160,4.0,5.0,98,0.00,,,0.00,3.000000,,2013-08-10 06:53:00,
2013-08-09 23:02:00,58.0,57.0,-100.00,SSE,160,4.0,5.0,98,0.00,,,0.00,3.000000,,2013-08-10 07:02:00,
2013-08-09 23:12:00,58.0,57.0,-100.00,SSE,160,4.0,5.0,98,0.00,,,0.00,3.000000,,2013-08-10 07:12:00,
2013-08-09 23:22:00,58.0,57.0,-100.00,SSE,160,4.0,5.0,98,0.00,,,0.00,3.000000,,2013-08-10 07:22:00,
2013-08-09 23:52:00,59.0,59.0,-100.00,SE,128,3.0,5.0,100,0.00,,,0.00,1.000000,,2013-08-10 07:52:00,